createdAt,value
2023-07-02T00:00:27.264Z,686.00
2023-07-02T00:01:27.334Z,691.00
2023-07-02T00:02:27.363Z,690.00
2023-07-02T00:03:27.426Z,691.00
2023-07-02T00:04:27.458Z,695.00
2023-07-02T00:05:27.471Z,692.00
2023-07-02T00:06:27.510Z,690.00
2023-07-02T00:07:27.584Z,691.00
2023-07-02T00:08:27.599Z,693.00
2023-07-02T00:09:27.632Z,696.00
2023-07-02T00:10:27.698Z,693.00
2023-07-02T00:11:27.717Z,694.00
2023-07-02T00:12:27.773Z,693.00
2023-07-02T00:13:27.794Z,693.00
2023-07-02T00:14:27.846Z,693.00
2023-07-02T00:15:27.887Z,690.00
2023-07-02T00:16:27.949Z,689.00
2023-07-02T00:17:27.973Z,691.00
2023-07-02T00:18:28.016Z,690.00
2023-07-02T00:19:28.052Z,690.00
2023-07-02T00:20:28.087Z,692.00
2023-07-02T00:21:28.128Z,693.00
2023-07-02T00:22:28.170Z,694.00
2023-07-02T00:23:28.214Z,694.00
2023-07-02T00:24:28.259Z,692.00
2023-07-02T00:25:28.292Z,688.00
2023-07-02T00:26:28.348Z,687.00
2023-07-02T00:27:28.382Z,685.00
2023-07-02T00:28:28.422Z,687.00
2023-07-02T00:29:28.461Z,688.00
2023-07-02T00:30:28.500Z,686.00
2023-07-02T00:31:28.672Z,686.00
2023-07-02T00:32:28.595Z,686.00
2023-07-02T00:33:28.604Z,685.00
2023-07-02T00:34:28.651Z,685.00
2023-07-02T00:35:28.697Z,683.00
2023-07-02T00:36:28.731Z,681.00
2023-07-02T00:37:28.784Z,682.00
2023-07-02T00:38:28.815Z,680.00
2023-07-02T00:39:28.861Z,681.00
2023-07-02T00:40:28.901Z,680.00
2023-07-02T00:41:29.100Z,680.00
2023-07-02T00:42:28.975Z,681.00
2023-07-02T00:43:29.016Z,683.00
2023-07-02T00:44:29.064Z,682.00
2023-07-02T00:45:29.115Z,685.00
2023-07-02T00:46:29.172Z,683.00
2023-07-02T00:47:29.224Z,682.00
2023-07-02T00:48:29.213Z,683.00
2023-07-02T00:49:29.267Z,684.00
2023-07-02T00:50:29.309Z,685.00
2023-07-02T00:51:29.336Z,686.00
2023-07-02T00:52:29.377Z,685.00
2023-07-02T00:53:29.428Z,683.00
2023-07-02T00:54:29.467Z,682.00
2023-07-02T00:55:29.504Z,680.00
2023-07-02T00:56:29.552Z,678.00
2023-07-02T00:57:29.587Z,678.00
2023-07-02T00:58:29.628Z,678.00
2023-07-02T00:59:29.675Z,679.00
2023-07-02T01:00:29.713Z,680.00
2023-07-02T01:01:29.816Z,681.00
2023-07-02T01:02:29.910Z,684.00
2023-07-02T01:03:29.842Z,687.00
2023-07-02T01:04:29.948Z,688.00
2023-07-02T01:05:30.003Z,688.00
2023-07-02T01:06:29.979Z,688.00
2023-07-02T01:07:30.069Z,690.00
2023-07-02T01:08:30.072Z,691.00
2023-07-02T01:09:30.096Z,691.00
2023-07-02T01:10:30.146Z,689.00
2023-07-02T01:11:30.172Z,691.00
2023-07-02T01:12:30.222Z,691.00
2023-07-02T01:13:30.256Z,692.00
2023-07-02T01:14:30.314Z,688.00
2023-07-02T01:15:30.349Z,688.00
2023-07-02T01:16:30.442Z,689.00
2023-07-02T01:17:30.440Z,695.00
2023-07-02T01:18:30.458Z,695.00
2023-07-02T01:19:30.495Z,695.00
2023-07-02T01:20:30.536Z,697.00
2023-07-02T01:21:30.579Z,696.00
2023-07-02T01:22:30.606Z,697.00
2023-07-02T01:23:30.641Z,699.00
2023-07-02T01:24:30.678Z,697.00
2023-07-02T01:25:30.722Z,698.00
2023-07-02T01:26:30.752Z,699.00
2023-07-02T01:27:30.790Z,699.00
2023-07-02T01:28:30.817Z,699.00
2023-07-02T01:29:30.865Z,695.00
2023-07-02T01:30:30.909Z,696.00
2023-07-02T01:31:30.975Z,696.00
2023-07-02T01:32:31.017Z,695.00
2023-07-02T01:33:31.027Z,694.00
2023-07-02T01:34:31.087Z,695.00
2023-07-02T01:35:31.100Z,694.00
2023-07-02T01:36:31.144Z,696.00
2023-07-02T01:37:31.189Z,698.00
2023-07-02T01:38:31.253Z,692.00
2023-07-02T01:39:31.280Z,695.00
2023-07-02T01:40:31.324Z,697.00
2023-07-02T01:41:31.369Z,701.00
2023-07-02T01:42:31.405Z,700.00
2023-07-02T01:43:31.478Z,697.00
2023-07-02T01:44:31.500Z,701.00
2023-07-02T01:45:31.551Z,701.00
2023-07-02T01:46:31.640Z,703.00
2023-07-02T01:47:31.727Z,701.00
2023-07-02T01:48:31.681Z,705.00
2023-07-02T01:49:31.736Z,704.00
2023-07-02T01:50:31.776Z,706.00
2023-07-02T01:51:31.805Z,703.00
2023-07-02T01:52:31.845Z,703.00
2023-07-02T01:53:31.951Z,701.00
2023-07-02T01:54:31.961Z,701.00
2023-07-02T01:55:31.980Z,698.00
2023-07-02T01:56:32.034Z,699.00
2023-07-02T01:57:32.076Z,698.00
2023-07-02T01:58:32.134Z,699.00
2023-07-02T01:59:32.167Z,699.00
2023-07-02T02:00:32.207Z,703.00
2023-07-02T02:01:32.272Z,704.00
2023-07-02T02:02:32.333Z,705.00
2023-07-02T02:03:32.379Z,704.00
2023-07-02T02:04:32.400Z,701.00
2023-07-02T02:05:32.427Z,703.00
2023-07-02T02:06:32.466Z,702.00
2023-07-02T02:07:32.508Z,705.00
2023-07-02T02:08:32.559Z,706.00
2023-07-02T02:09:32.603Z,704.00
2023-07-02T02:10:32.639Z,706.00
2023-07-02T02:11:32.693Z,704.00
2023-07-02T02:12:32.738Z,703.00
2023-07-02T02:13:32.774Z,702.00
2023-07-02T02:14:32.833Z,701.00
2023-07-02T02:15:32.898Z,702.00
2023-07-02T02:16:32.960Z,701.00
2023-07-02T02:17:33.033Z,702.00
2023-07-02T02:18:33.017Z,703.00
2023-07-02T02:19:33.053Z,703.00
2023-07-02T02:20:33.092Z,701.00
2023-07-02T02:21:33.142Z,701.00
2023-07-02T02:22:33.167Z,701.00
2023-07-02T02:23:33.219Z,700.00
2023-07-02T02:24:33.266Z,701.00
2023-07-02T02:25:33.312Z,704.00
2023-07-02T02:26:33.350Z,704.00
2023-07-02T02:27:33.409Z,708.00
2023-07-02T02:28:33.449Z,709.00
2023-07-02T02:29:33.478Z,704.00
2023-07-02T02:30:33.517Z,702.00
2023-07-02T02:31:33.638Z,699.00
2023-07-02T02:32:33.646Z,698.00
2023-07-02T02:33:33.654Z,694.00
2023-07-02T02:34:33.675Z,692.00
2023-07-02T02:35:33.724Z,694.00
2023-07-02T02:36:33.758Z,693.00
2023-07-02T02:37:33.807Z,692.00
2023-07-02T02:38:33.842Z,692.00
2023-07-02T02:39:33.883Z,693.00
2023-07-02T02:40:33.926Z,694.00
2023-07-02T02:41:33.966Z,695.00
2023-07-02T02:42:34.001Z,697.00
2023-07-02T02:43:34.049Z,696.00
2023-07-02T02:44:34.098Z,697.00
2023-07-02T02:45:34.127Z,698.00
2023-07-02T02:46:34.212Z,699.00
2023-07-02T02:47:34.223Z,701.00
2023-07-02T02:48:34.249Z,700.00
2023-07-02T02:49:34.299Z,700.00
2023-07-02T02:50:34.324Z,700.00
2023-07-02T02:51:34.364Z,700.00
2023-07-02T02:52:34.403Z,702.00
2023-07-02T02:53:34.451Z,703.00
2023-07-02T02:54:34.485Z,702.00
2023-07-02T02:55:34.519Z,703.00
2023-07-02T02:56:34.576Z,701.00
2023-07-02T02:57:34.612Z,698.00
2023-07-02T02:58:34.651Z,701.00
2023-07-02T02:59:34.698Z,700.00
2023-07-02T03:00:34.731Z,700.00
2023-07-02T03:01:34.830Z,699.00
2023-07-02T03:02:34.864Z,702.00
2023-07-02T03:03:34.874Z,700.00
2023-07-02T03:04:34.934Z,702.00
2023-07-02T03:05:34.937Z,700.00
2023-07-02T03:06:34.978Z,701.00
2023-07-02T03:07:35.018Z,701.00
2023-07-02T03:08:35.064Z,702.00
2023-07-02T03:09:35.130Z,700.00
2023-07-02T03:10:35.186Z,702.00
2023-07-02T03:11:35.223Z,702.00
2023-07-02T03:12:35.287Z,705.00
2023-07-02T03:13:35.291Z,702.00
2023-07-02T03:14:35.323Z,703.00
2023-07-02T03:15:35.368Z,701.00
2023-07-02T03:16:35.463Z,700.00
2023-07-02T03:17:35.499Z,698.00
2023-07-02T03:18:35.499Z,697.00
2023-07-02T03:19:35.556Z,700.00
2023-07-02T03:20:35.573Z,702.00
2023-07-02T03:21:35.629Z,700.00
2023-07-02T03:22:35.661Z,699.00
2023-07-02T03:23:35.706Z,699.00
2023-07-02T03:24:35.754Z,702.00
2023-07-02T03:25:35.789Z,704.00
2023-07-02T03:26:35.840Z,704.00
2023-07-02T03:27:35.910Z,703.00
2023-07-02T03:28:35.989Z,700.00
2023-07-02T03:29:35.978Z,697.00
2023-07-02T03:30:36.034Z,697.00
2023-07-02T03:31:36.095Z,696.00
2023-07-02T03:32:36.156Z,697.00
2023-07-02T03:33:36.150Z,697.00
2023-07-02T03:34:36.191Z,699.00
2023-07-02T03:35:36.216Z,698.00
2023-07-02T03:36:36.263Z,700.00
2023-07-02T03:37:36.302Z,699.00
2023-07-02T03:38:36.343Z,702.00
2023-07-02T03:39:36.399Z,704.00
2023-07-02T03:40:36.434Z,707.00
2023-07-02T03:41:36.476Z,708.00
2023-07-02T03:42:36.518Z,710.00
2023-07-02T03:43:36.556Z,710.00
2023-07-02T03:44:36.620Z,707.00
2023-07-02T03:45:36.679Z,706.00
2023-07-02T03:46:36.760Z,703.00
2023-07-02T03:47:36.771Z,702.00
2023-07-02T03:48:36.829Z,705.00
2023-07-02T03:49:36.837Z,707.00
2023-07-02T03:50:36.885Z,704.00
2023-07-02T03:51:36.933Z,704.00
2023-07-02T03:52:36.978Z,704.00
2023-07-02T03:53:37.029Z,703.00
2023-07-02T03:54:37.075Z,703.00
2023-07-02T03:55:37.127Z,701.00
2023-07-02T03:56:37.174Z,702.00
2023-07-02T03:57:37.218Z,700.00
2023-07-02T03:58:37.273Z,700.00
2023-07-02T03:59:37.316Z,700.00
2023-07-02T04:00:37.358Z,699.00
2023-07-02T04:01:37.412Z,700.00
2023-07-02T04:02:37.557Z,699.00
2023-07-02T04:03:37.596Z,697.00
2023-07-02T04:04:37.626Z,696.00
2023-07-02T04:05:37.585Z,695.00
2023-07-02T04:06:37.630Z,695.00
2023-07-02T04:07:37.678Z,697.00
2023-07-02T04:08:37.719Z,698.00
2023-07-02T04:09:37.766Z,699.00
2023-07-02T04:10:37.822Z,699.00
2023-07-02T04:11:37.845Z,698.00
2023-07-02T04:12:37.893Z,694.00
2023-07-02T04:13:37.939Z,694.00
2023-07-02T04:14:37.987Z,693.00
2023-07-02T04:15:38.029Z,695.00
2023-07-02T04:16:38.178Z,695.00
2023-07-02T04:17:38.144Z,694.00
2023-07-02T04:18:38.169Z,694.00
2023-07-02T04:19:38.210Z,698.00
2023-07-02T04:20:38.260Z,702.00
2023-07-02T04:21:38.311Z,700.00
2023-07-02T04:22:38.337Z,701.00
2023-07-02T04:23:38.387Z,699.00
2023-07-02T04:24:38.435Z,701.00
2023-07-02T04:25:43.904Z,704.00
2023-07-02T04:27:33.072Z,703.00
2023-07-02T04:27:50.850Z,701.00
2023-07-02T04:28:39.445Z,703.00
2023-07-02T04:29:38.442Z,704.00
2023-07-02T04:30:38.420Z,703.00
2023-07-02T04:31:38.465Z,703.00
2023-07-02T04:32:38.461Z,703.00
2023-07-02T04:33:38.398Z,705.00
2023-07-02T04:34:38.387Z,703.00
2023-07-02T04:35:38.380Z,703.00
2023-07-02T04:36:38.367Z,705.00
2023-07-02T04:37:38.415Z,706.00
2023-07-02T04:38:38.340Z,702.00
2023-07-02T04:39:38.370Z,704.00
2023-07-02T04:40:38.326Z,702.00
2023-07-02T04:41:38.328Z,703.00
2023-07-02T04:42:38.316Z,701.00
2023-07-02T04:43:38.314Z,698.00
2023-07-02T04:44:38.306Z,698.00
2023-07-02T04:45:38.289Z,701.00
2023-07-02T04:46:38.331Z,700.00
2023-07-02T04:47:38.401Z,700.00
2023-07-02T04:48:38.304Z,699.00
2023-07-02T04:49:38.254Z,700.00
2023-07-02T04:50:38.244Z,700.00
2023-07-02T04:51:38.234Z,702.00
2023-07-02T04:52:38.225Z,702.00
2023-07-02T04:53:38.233Z,703.00
2023-07-02T04:54:38.226Z,702.00
2023-07-02T04:55:38.238Z,703.00
2023-07-02T04:56:38.272Z,703.00
2023-07-02T04:57:38.309Z,705.00
2023-07-02T04:58:38.357Z,703.00
2023-07-02T04:59:38.408Z,703.00
2023-07-02T05:00:38.462Z,707.00
2023-07-02T05:01:38.510Z,706.00
2023-07-02T05:02:38.590Z,703.00
2023-07-02T05:03:38.711Z,701.00
2023-07-02T05:04:38.652Z,699.00
2023-07-02T05:05:38.686Z,698.00
2023-07-02T05:06:38.723Z,697.00
2023-07-02T05:07:38.773Z,697.00
2023-07-02T05:08:39.971Z,697.00
2023-07-02T05:09:38.867Z,698.00
2023-07-02T05:10:38.900Z,699.00
2023-07-02T05:11:38.953Z,699.00
2023-07-02T05:12:38.996Z,699.00
2023-07-02T05:13:39.039Z,702.00
2023-07-02T05:14:39.084Z,705.00
2023-07-02T05:15:39.133Z,703.00
2023-07-02T05:16:39.223Z,704.00
2023-07-02T05:17:39.243Z,705.00
2023-07-02T05:18:39.267Z,706.00
2023-07-02T05:19:39.306Z,703.00
2023-07-02T05:20:39.349Z,704.00
2023-07-02T05:21:39.400Z,706.00
2023-07-02T05:22:39.442Z,708.00
2023-07-02T05:23:39.490Z,710.00
2023-07-02T05:24:39.577Z,712.00
2023-07-02T05:25:39.592Z,707.00
2023-07-02T05:26:39.640Z,706.00
2023-07-02T05:27:39.684Z,706.00
2023-07-02T05:28:39.727Z,705.00
2023-07-02T05:29:39.765Z,707.00
2023-07-02T05:30:39.814Z,710.00
2023-07-02T05:31:40.083Z,713.00
2023-07-02T05:32:39.950Z,713.00
2023-07-02T05:33:39.955Z,714.00
2023-07-02T05:34:40.001Z,714.00
2023-07-02T05:35:40.046Z,710.00
2023-07-02T05:36:40.095Z,709.00
2023-07-02T05:37:40.131Z,707.00
2023-07-02T05:38:40.188Z,705.00
2023-07-02T05:39:40.238Z,703.00
2023-07-02T05:40:40.290Z,702.00
2023-07-02T05:41:40.327Z,702.00
2023-07-02T05:42:40.375Z,701.00
2023-07-02T05:43:40.416Z,698.00
2023-07-02T05:44:40.470Z,698.00
2023-07-02T05:45:40.518Z,698.00
2023-07-02T05:46:40.625Z,701.00
2023-07-02T05:47:40.621Z,701.00
2023-07-02T05:48:40.645Z,700.00
2023-07-02T05:49:40.691Z,701.00
2023-07-02T05:50:40.732Z,700.00
2023-07-02T05:51:40.770Z,699.00
2023-07-02T05:52:40.816Z,695.00
2023-07-02T05:53:40.886Z,695.00
2023-07-02T05:54:40.924Z,696.00
2023-07-02T05:55:40.962Z,694.00
2023-07-02T05:56:41.018Z,695.00
2023-07-02T05:57:41.074Z,693.00
2023-07-02T05:58:48.240Z,697.00
2023-07-02T05:59:42.161Z,699.00
2023-07-02T06:00:41.073Z,697.00
2023-07-02T06:01:42.611Z,697.00
2023-07-02T06:02:41.282Z,699.00
2023-07-02T06:03:41.279Z,701.00
2023-07-02T06:04:41.422Z,699.00
2023-07-02T06:05:41.586Z,697.00
2023-07-02T06:06:41.407Z,700.00
2023-07-02T06:07:41.453Z,699.00
2023-07-02T06:08:41.506Z,699.00
2023-07-02T06:09:41.549Z,701.00
2023-07-02T06:10:41.584Z,700.00
2023-07-02T06:11:41.623Z,698.00
2023-07-02T06:12:41.667Z,699.00
2023-07-02T06:13:41.711Z,705.00
2023-07-02T06:14:41.773Z,704.00
2023-07-02T06:15:41.803Z,706.00
2023-07-02T06:16:41.933Z,707.00
2023-07-02T06:17:41.908Z,706.00
2023-07-02T06:18:41.973Z,704.00
2023-07-02T06:19:41.966Z,703.00
2023-07-02T06:20:42.000Z,704.00
2023-07-02T06:21:42.050Z,705.00
2023-07-02T06:22:42.084Z,704.00
2023-07-02T06:23:42.130Z,704.00
2023-07-02T06:24:42.180Z,701.00
2023-07-02T06:25:42.227Z,701.00
2023-07-02T06:26:42.261Z,700.00
2023-07-02T06:27:42.304Z,698.00
2023-07-02T06:28:42.351Z,695.00
2023-07-02T06:29:42.400Z,696.00
2023-07-02T06:30:42.465Z,695.00
2023-07-02T06:31:42.522Z,696.00
2023-07-02T06:32:42.668Z,694.00
2023-07-02T06:33:42.561Z,692.00
2023-07-02T06:34:42.610Z,691.00
2023-07-02T06:35:42.653Z,692.00
2023-07-02T06:36:42.714Z,694.00
2023-07-02T06:37:42.743Z,695.00
2023-07-02T06:38:42.778Z,697.00
2023-07-02T06:39:42.829Z,696.00
2023-07-02T06:40:42.868Z,697.00
2023-07-02T06:41:42.912Z,697.00
2023-07-02T06:42:42.953Z,698.00
2023-07-02T06:43:43.000Z,703.00
2023-07-02T06:44:43.053Z,703.00
2023-07-02T06:45:43.086Z,704.00
2023-07-02T06:46:43.142Z,706.00
2023-07-02T06:47:43.230Z,709.00
2023-07-02T06:48:43.222Z,713.00
2023-07-02T06:49:43.261Z,711.00
2023-07-02T06:50:43.301Z,710.00
2023-07-02T06:51:43.356Z,707.00
2023-07-02T06:52:43.395Z,706.00
2023-07-02T06:53:43.442Z,707.00
2023-07-02T06:54:43.562Z,707.00
2023-07-02T06:55:43.533Z,709.00
2023-07-02T06:56:43.592Z,707.00
2023-07-02T06:57:43.637Z,704.00
2023-07-02T06:58:43.685Z,703.00
2023-07-02T06:59:43.716Z,700.00
2023-07-02T07:00:43.755Z,699.00
2023-07-02T07:01:43.871Z,700.00
2023-07-02T07:02:43.864Z,698.00
2023-07-02T07:03:43.945Z,698.00
2023-07-02T07:04:43.982Z,699.00
2023-07-02T07:05:43.975Z,701.00
2023-07-02T07:06:44.024Z,701.00
2023-07-02T07:07:44.061Z,702.00
2023-07-02T07:08:44.106Z,702.00
2023-07-02T07:09:44.166Z,702.00
2023-07-02T07:10:44.206Z,702.00
2023-07-02T07:11:44.242Z,704.00
2023-07-02T07:12:44.288Z,703.00
2023-07-02T07:13:44.326Z,703.00
2023-07-02T07:14:44.444Z,701.00
2023-07-02T07:15:44.422Z,703.00
2023-07-02T07:16:44.449Z,705.00
2023-07-02T07:17:44.577Z,704.00
2023-07-02T07:18:44.560Z,703.00
2023-07-02T07:19:44.566Z,702.00
2023-07-02T07:20:44.613Z,702.00
2023-07-02T07:21:44.677Z,702.00
2023-07-02T07:22:44.715Z,702.00
2023-07-02T07:23:44.801Z,703.00
2023-07-02T07:24:44.805Z,699.00
2023-07-02T07:25:44.838Z,701.00
2023-07-02T07:26:44.866Z,703.00
2023-07-02T07:27:44.916Z,705.00
2023-07-02T07:28:44.963Z,701.00
2023-07-02T07:29:45.004Z,702.00
2023-07-02T07:30:45.082Z,702.00
2023-07-02T07:31:45.127Z,702.00
2023-07-02T07:32:45.157Z,702.00
2023-07-02T07:33:45.204Z,700.00
2023-07-02T07:34:45.222Z,700.00
2023-07-02T07:35:45.249Z,702.00
2023-07-02T07:36:45.289Z,702.00
2023-07-02T07:37:45.333Z,704.00
2023-07-02T07:38:45.382Z,706.00
2023-07-02T07:39:45.422Z,705.00
2023-07-02T07:40:45.470Z,706.00
2023-07-02T07:41:45.496Z,705.00
2023-07-02T07:42:45.562Z,703.00
2023-07-02T07:43:45.589Z,702.00
2023-07-02T07:44:45.635Z,702.00
2023-07-02T07:45:45.728Z,705.00
2023-07-02T07:46:45.726Z,706.00
2023-07-02T07:47:45.775Z,705.00
2023-07-02T07:48:45.816Z,704.00
2023-07-02T07:49:45.857Z,704.00
2023-07-02T07:50:46.027Z,702.00
2023-07-02T07:51:45.942Z,701.00
2023-07-02T07:52:45.988Z,702.00
2023-07-02T07:53:46.023Z,700.00
2023-07-02T07:54:46.076Z,702.00
2023-07-02T07:55:46.184Z,702.00
2023-07-02T07:56:46.166Z,703.00
2023-07-02T07:57:46.206Z,700.00
2023-07-02T07:58:46.241Z,698.00
2023-07-02T07:59:46.287Z,701.00
2023-07-02T08:00:46.380Z,701.00
2023-07-02T08:01:46.415Z,700.00
2023-07-02T08:02:46.432Z,702.00
2023-07-02T08:03:46.467Z,703.00
2023-07-02T08:04:46.516Z,704.00
2023-07-02T08:05:46.530Z,702.00
2023-07-02T08:06:46.589Z,702.00
2023-07-02T08:07:46.621Z,702.00
2023-07-02T08:08:46.660Z,701.00
2023-07-02T08:09:46.700Z,701.00
2023-07-02T08:10:46.928Z,704.00
2023-07-02T08:11:46.782Z,706.00
2023-07-02T08:12:46.841Z,706.00
2023-07-02T08:13:46.872Z,706.00
2023-07-02T08:14:46.988Z,705.00
2023-07-02T08:15:47.026Z,705.00
2023-07-02T08:16:47.011Z,705.00
2023-07-02T08:17:47.094Z,704.00
2023-07-02T08:18:47.095Z,703.00
2023-07-02T08:19:47.149Z,702.00
2023-07-02T08:20:47.480Z,702.00
2023-07-02T08:21:47.256Z,704.00
2023-07-02T08:22:47.280Z,706.00
2023-07-02T08:23:47.338Z,698.00
2023-07-02T08:24:47.374Z,698.00
2023-07-02T08:25:47.427Z,693.00
2023-07-02T08:26:47.468Z,690.00
2023-07-02T08:27:47.522Z,688.00
2023-07-02T08:28:47.564Z,687.00
2023-07-02T08:29:47.606Z,688.00
2023-07-02T08:30:47.886Z,690.00
2023-07-02T08:31:47.758Z,688.00
2023-07-02T08:32:47.785Z,687.00
2023-07-02T08:33:47.798Z,689.00
2023-07-02T08:34:47.838Z,691.00
2023-07-02T08:35:47.876Z,691.00
2023-07-02T08:36:47.921Z,689.00
2023-07-02T08:37:47.981Z,687.00
2023-07-02T08:38:48.022Z,691.00
2023-07-02T08:39:48.070Z,694.00
2023-07-02T08:40:48.297Z,695.00
2023-07-02T08:41:48.159Z,695.00
2023-07-02T08:42:48.215Z,697.00
2023-07-02T08:43:48.243Z,699.00
2023-07-02T08:44:48.295Z,698.00
2023-07-02T08:45:48.338Z,696.00
2023-07-02T08:46:48.432Z,694.00
2023-07-02T08:47:48.492Z,692.00
2023-07-02T08:48:48.477Z,689.00
2023-07-02T08:49:48.525Z,689.00
2023-07-02T08:50:48.729Z,688.00
2023-07-02T08:51:48.619Z,691.00
2023-07-02T08:52:48.677Z,694.00
2023-07-02T08:53:48.722Z,695.00
2023-07-02T08:54:48.789Z,695.00
2023-07-02T08:55:48.827Z,696.00
2023-07-02T08:56:48.868Z,696.00
2023-07-02T08:57:48.919Z,696.00
2023-07-02T08:58:48.963Z,698.00
2023-07-02T08:59:49.017Z,696.00
2023-07-02T09:00:49.365Z,697.00
2023-07-02T09:01:49.183Z,697.00
2023-07-02T09:02:49.219Z,697.00
2023-07-02T09:03:49.259Z,695.00
2023-07-02T09:04:49.313Z,693.00
2023-07-02T09:05:49.330Z,693.00
2023-07-02T09:06:49.373Z,690.00
2023-07-02T09:07:51.804Z,689.00
2023-07-02T09:08:49.419Z,688.00
2023-07-02T09:09:49.424Z,690.00
2023-07-02T09:10:49.677Z,691.00
2023-07-02T09:11:49.432Z,692.00
2023-07-02T09:12:49.402Z,694.00
2023-07-02T09:13:49.398Z,693.00
2023-07-02T09:14:49.382Z,691.00
2023-07-02T09:15:50.411Z,688.00
2023-07-02T09:16:49.416Z,690.00
2023-07-02T09:17:49.424Z,689.00
2023-07-02T09:18:49.351Z,690.00
2023-07-02T09:19:49.356Z,691.00
2023-07-02T09:20:49.503Z,689.00
2023-07-02T09:21:49.357Z,689.00
2023-07-02T09:22:49.349Z,691.00
2023-07-02T09:23:49.341Z,693.00
2023-07-02T09:24:49.332Z,696.00
2023-07-02T09:25:49.363Z,697.00
2023-07-02T09:26:49.415Z,698.00
2023-07-02T09:27:49.457Z,697.00
2023-07-02T09:28:50.890Z,697.00
2023-07-02T09:29:49.559Z,698.00
2023-07-02T09:30:49.796Z,697.00
2023-07-02T09:32:08.101Z,695.00
2023-07-02T09:32:50.729Z,695.00
2023-07-02T09:33:49.685Z,696.00
2023-07-02T09:34:49.666Z,696.00
2023-07-02T09:35:49.777Z,694.00
2023-07-02T09:36:49.610Z,692.00
2023-07-02T09:37:49.602Z,692.00
2023-07-02T09:38:49.589Z,691.00
2023-07-02T09:39:49.577Z,689.00
2023-07-02T09:40:49.750Z,691.00
2023-07-02T09:41:49.609Z,691.00
2023-07-02T09:42:49.648Z,695.00
2023-07-02T09:43:49.702Z,695.00
2023-07-02T09:44:49.819Z,696.00
2023-07-02T09:45:49.824Z,699.00
2023-07-02T09:46:49.908Z,702.00
2023-07-02T09:47:49.927Z,704.00
2023-07-02T09:48:49.941Z,701.00
2023-07-02T09:49:50.000Z,700.00
2023-07-02T09:50:50.379Z,699.00
2023-07-02T09:51:50.095Z,698.00
2023-07-02T09:52:50.180Z,699.00
2023-07-02T09:53:50.195Z,697.00
2023-07-02T09:54:50.242Z,694.00
2023-07-02T09:55:50.292Z,695.00
2023-07-02T09:56:50.365Z,693.00
2023-07-02T09:57:50.392Z,691.00
2023-07-02T09:58:50.449Z,690.00
2023-07-02T09:59:50.492Z,690.00
2023-07-02T10:00:50.889Z,691.00
2023-07-02T10:01:50.630Z,691.00
2023-07-02T10:02:50.700Z,691.00
2023-07-02T10:03:50.728Z,690.00
2023-07-02T10:04:50.811Z,694.00
2023-07-02T10:05:50.803Z,695.00
2023-07-02T10:06:50.865Z,694.00
2023-07-02T10:07:50.970Z,696.00
2023-07-02T10:08:50.956Z,697.00
2023-07-02T10:09:51.006Z,694.00
2023-07-02T10:10:51.415Z,694.00
2023-07-02T10:11:51.105Z,692.00
2023-07-02T10:12:51.156Z,691.00
2023-07-02T10:13:51.207Z,690.00
2023-07-02T10:14:51.273Z,693.00
2023-07-02T10:15:51.318Z,692.00
2023-07-02T10:16:51.429Z,692.00
2023-07-02T10:17:51.675Z,693.00
2023-07-02T10:18:51.500Z,693.00
2023-07-02T10:19:52.473Z,693.00
2023-07-02T10:20:51.793Z,694.00
2023-07-02T10:21:51.638Z,692.00
2023-07-02T10:22:51.685Z,694.00
2023-07-02T10:23:51.740Z,693.00
2023-07-02T10:24:51.812Z,691.00
2023-07-02T10:25:51.856Z,691.00
2023-07-02T10:26:51.887Z,691.00
2023-07-02T10:27:51.937Z,691.00
2023-07-02T10:28:51.986Z,691.00
2023-07-02T10:29:52.050Z,692.00
2023-07-02T10:30:52.318Z,693.00
2023-07-02T10:31:52.241Z,693.00
2023-07-02T10:32:52.290Z,693.00
2023-07-02T10:33:52.222Z,697.00
2023-07-02T10:34:52.256Z,696.00
2023-07-02T10:35:52.345Z,696.00
2023-07-02T10:36:52.358Z,696.00
2023-07-02T10:37:52.424Z,696.00
2023-07-02T10:38:52.440Z,697.00
2023-07-02T10:39:52.503Z,696.00
2023-07-02T10:40:52.540Z,695.00
2023-07-02T10:41:52.593Z,694.00
2023-07-02T10:42:52.689Z,694.00
2023-07-02T10:43:52.698Z,694.00
2023-07-02T10:44:52.751Z,696.00
2023-07-02T10:45:52.814Z,697.00
2023-07-02T10:46:52.857Z,697.00
2023-07-02T10:47:52.907Z,697.00
2023-07-02T10:48:52.924Z,697.00
2023-07-02T10:49:52.977Z,698.00
2023-07-02T10:50:53.115Z,700.00
2023-07-02T10:51:53.074Z,701.00
2023-07-02T10:52:53.147Z,701.00
2023-07-02T10:53:53.175Z,704.00
2023-07-02T10:54:53.212Z,704.00
2023-07-02T10:55:55.386Z,703.00
2023-07-02T10:56:53.251Z,701.00
2023-07-02T10:57:53.256Z,699.00
2023-07-02T10:58:53.297Z,697.00
2023-07-02T10:59:53.232Z,698.00
2023-07-02T11:00:53.228Z,701.00
2023-07-02T11:01:53.235Z,702.00
2023-07-02T11:02:53.235Z,700.00
2023-07-02T11:03:53.296Z,700.00
2023-07-02T11:04:53.243Z,700.00
2023-07-02T11:05:53.574Z,702.00
2023-07-02T11:06:53.122Z,703.00
2023-07-02T11:07:53.103Z,701.00
2023-07-02T11:08:53.081Z,700.00
2023-07-02T11:09:53.095Z,702.00
2023-07-02T11:10:53.067Z,702.00
2023-07-02T11:11:53.049Z,702.00
2023-07-02T11:12:53.036Z,702.00
2023-07-02T11:13:53.038Z,700.00
2023-07-02T11:14:53.022Z,698.00
2023-07-02T11:15:53.135Z,700.00
2023-07-02T11:16:53.043Z,698.00
2023-07-02T11:17:53.067Z,696.00
2023-07-02T11:18:52.974Z,698.00
2023-07-02T11:19:52.942Z,698.00
2023-07-02T11:20:52.929Z,697.00
2023-07-02T11:21:52.908Z,697.00
2023-07-02T11:22:52.900Z,698.00
2023-07-02T11:23:52.884Z,695.00
2023-07-02T11:24:52.898Z,693.00
2023-07-02T11:25:52.860Z,692.00
2023-07-02T11:26:52.846Z,691.00
2023-07-02T11:27:52.835Z,692.00
2023-07-02T11:28:52.824Z,689.00
2023-07-02T11:29:52.805Z,687.00
2023-07-02T11:30:52.859Z,686.00
2023-07-02T11:31:52.776Z,689.00
2023-07-02T11:32:53.010Z,688.00
2023-07-02T11:33:52.877Z,685.00
2023-07-02T11:34:53.172Z,687.00
2023-07-02T11:35:52.901Z,686.00
2023-07-02T11:36:52.888Z,685.00
2023-07-02T11:37:52.894Z,685.00
2023-07-02T11:38:52.861Z,684.00
2023-07-02T11:39:52.860Z,685.00
2023-07-02T11:40:52.902Z,686.00
2023-07-02T11:41:52.943Z,684.00
2023-07-02T11:42:52.981Z,685.00
2023-07-02T11:43:53.052Z,688.00
2023-07-02T11:44:53.103Z,690.00
2023-07-02T11:45:53.123Z,688.00
2023-07-02T11:46:53.240Z,690.00
2023-07-02T11:47:53.268Z,688.00
2023-07-02T11:48:53.265Z,689.00
2023-07-02T11:49:53.310Z,689.00
2023-07-02T11:50:53.361Z,686.00
2023-07-02T11:51:53.404Z,690.00
2023-07-02T11:52:53.478Z,694.00
2023-07-02T11:53:53.497Z,694.00
2023-07-02T11:54:53.535Z,695.00
2023-07-02T11:55:53.572Z,694.00
2023-07-02T11:56:53.644Z,696.00
2023-07-02T11:57:53.663Z,696.00
2023-07-02T11:58:53.709Z,696.00
2023-07-02T11:59:53.752Z,696.00
2023-07-02T12:00:53.803Z,694.00
2023-07-02T12:01:53.919Z,694.00
2023-07-02T12:02:53.974Z,694.00
2023-07-02T12:03:53.967Z,691.00
2023-07-02T12:04:54.248Z,690.00
2023-07-02T12:05:54.034Z,687.00
2023-07-02T12:06:54.068Z,685.00
2023-07-02T12:07:54.100Z,683.00
2023-07-02T12:08:54.155Z,680.00
2023-07-02T12:09:54.188Z,679.00
2023-07-02T12:10:54.251Z,679.00
2023-07-02T12:11:54.281Z,679.00
2023-07-02T12:12:54.340Z,677.00
2023-07-02T12:13:54.390Z,678.00
2023-07-02T12:14:54.421Z,681.00
2023-07-02T12:15:54.463Z,683.00
2023-07-02T12:16:54.564Z,684.00
2023-07-02T12:17:54.616Z,681.00
2023-07-02T12:18:54.659Z,682.00
2023-07-02T12:19:54.640Z,685.00
2023-07-02T12:20:54.671Z,681.00
2023-07-02T12:21:54.709Z,679.00
2023-07-02T12:22:54.750Z,681.00
2023-07-02T12:23:54.819Z,678.00
2023-07-02T12:24:54.839Z,678.00
2023-07-02T12:25:54.893Z,680.00
2023-07-02T12:26:54.916Z,679.00
2023-07-02T12:27:54.949Z,679.00
2023-07-02T12:28:54.990Z,677.00